Tiempo atmosférico en la estación meteorológica de Jerez de la Frontera Aeropuerto, Cádiz (27 m.)



Fecha
DESCASC
Temp. máxima en grados centígrados (hora)
DESCASC
Temp. mínima en grados centígrados (hora)
DESCASC
Temp. media en grados centígrados
DESCASC
Racha de viento máxima en m/sg (hora)
DESCASC
Velocidad máxima media en intervalos de 10 minutos(hora)
DESCASC
Precipitaciones diarias en mm
DESCASC
Precipitaciones de 00:00 a 06:00 en mm
DESCASC
Precipitaciones de 06:00 a 12:00 en mm
DESCASC
Precipitaciones de 12:00 a 18:00 en mm
DESCASC
Precipitaciones de 18:00 a 24:00 en mm
DESCASC
29-10-2020 27.9 (16:30) 8.8 (08:10) 18.3 6.67 (16:40) 4.44 (16:50) 0 0 0 0 0
28-10-2020 23 (16:10) 8.5 (04:00) 15.8 10.83 (14:20) 7.5 (13:40) 0 0 0 0 0
27-10-2020 20.5 (15:40) 5.8 (00:00) 13.2 8.33 (15:30) 4.72 (15:40) 0 0 0 0 0
26-10-2020 20.2 (14:30) 10 (00:00) 15.1 12.5 (00:30) 8.06 (00:30) 1 1 0 0 0
25-10-2020 21.9 (15:10) 9.1 (00:00) 15.5 12.5 (23:20) 8.89 (23:30) 2.2 0 0 0 2.2
24-10-2020 23.7 (15:20) 9.8 (00:00) 16.8 -- (--) -- (--) 0 0 0 0 0
23-10-2020 23 (17:00) 12.6 (00:00) 17.8 7.22 (14:40) 4.44 (17:50) 0.4 0.4 0 0 0
22-10-2020 21.2 (17:20) 14.5 (00:00) 17.9 10.83 (18:40) 6.94 (13:40) 18.9 12.2 0 6.6 0.1
21-10-2020 23.9 (16:20) 16.2 (00:00) 20.1 16.11 (04:20) 9.72 (04:30) 3.4 3.4 0 0 0
20-10-2020 26.1 (14:50) 18 (00:00) 22.1 23.61 (21:30) 14.44 (21:40) 9.7 0 0 0.1 9.6
19-10-2020 27.4 (14:50) 16.3 (00:00) 21.8 18.06 (15:00) 11.11 (14:20) 0 0 0 0 0
18-10-2020 27.4 (15:20) 6 (00:00) 16.7 9.72 (15:20) 6.11 (15:50) 0 0 0 0 0
17-10-2020 24.3 (16:40) 6.1 (00:00) 15.2 -- (--) -- (--) 0 0 0 0 0
16-10-2020 24 (16:30) 5 (00:00) 14.5 8.33 (14:30) 5.83 (16:50) 0 0 0 0 0
15-10-2020 24.2 (16:10) 4.1 (00:00) 14.2 8.89 (16:50) 5.56 (17:20) 0 0 0 0 0
14-10-2020 22.4 (16:50) 10 (00:00) 16.2 -- (--) -- (--) -- 0 -- 0 0
13-10-2020 28 (16:30) 5.4 (00:00) 16.7 9.17 (14:40) 5.56 (14:30) 0 0 0 0 0
12-10-2020 27.5 (15:50) 8.8 (00:00) 18.2 10.28 (16:40) 7.22 (18:20) 0 0 0 0 0
11-10-2020 28.8 (16:20) 10.6 (00:00) 19.7 -- (--) -- (--) 0 0 0 0 0
10-10-2020 30.5 (16:30) 11.1 (00:00) 20.8 8.33 (16:40) 5.28 (16:40) 0 0 0 0 0
09-10-2020 30.9 (18:20) 12.3 (00:00) 21.6 6.11 (19:10) 4.44 (20:00) 0 0 0 0 0
08-10-2020 33.5 (15:50) 11.9 (00:00) 22.7 11.39 (12:30) 6.11 (16:40) 0 0 0 0 0
07-10-2020 33.9 (16:50) 11.1 (00:00) 22.5 7.78 (18:30) 5.83 (18:30) 0 0 0 0 0
06-10-2020 29.7 (16:50) 9.2 (00:00) 19.5 10.28 (14:20) 6.67 (15:10) 0 0 0 0 0
05-10-2020 25 (17:30) 8.9 (00:00) 16.9 10.28 (16:10) 6.11 (12:20) 0 0 0 0 0
04-10-2020 23.5 (14:10) 7 (00:00) 15.3 11.39 (16:30) 6.39 (16:50) 0 0 0 0 0
03-10-2020 23.7 (16:20) 8.8 (00:00) 16.3 9.17 (13:30) 6.11 (19:40) 0 0 0 0 0
02-10-2020 24.7 (16:20) 15 (00:00) 19.9 21.67 (16:40) 13.61 (16:40) 0.9 0 0 0.9 0
01-10-2020 27.9 (16:50) 14.4 (00:00) 21.1 10.83 (19:00) 8.06 (19:00) 0 0 0 0 0

Gráficas

Temp. máximas Temp. mínimas Temp. medias Precipitaciones Rachas de viento máximas Velocidades máximas media en intervalos de 10 minutos

Datos horarios

Fecha y hora oficial Temperatura (ºC) Velocidad del viento (km/h) Dirección del viento Racha (km/h) Dirección de racha Precipitación (mm) Presión (hPa) Tendencia (hPa) Humedad (%)
2020-10-30 23:00:00 14.1 0 Calma 5 Sudeste 0 1020.6 0.8 80
2020-10-30 22:00:00 14.9 0 Calma 2 Sudeste 0 1020.3 1 74
2020-10-30 21:00:00 16.7 0 Calma 4 Sudeste 0 1020 0.9 68
2020-10-30 20:00:00 19.4 0 Calma 15 Sudeste 0 1019.8 0.9 56
2020-10-30 19:00:00 21.6 8 Sudeste 17 Este 0 1019.3 0.3 49
2020-10-30 18:00:00 24.4 11 Este 22 Nordeste 0 1019.1 -0.1 40
2020-10-30 17:00:00 25.9 14 Nordeste 24 Nordeste 0 1018.9 -0.8 36
2020-10-30 16:00:00 25.3 6 Este 15 Este 0 1019 -1.2 36
2020-10-30 15:00:00 24.6 9 Norte 18 Norte 0 1019.2 -1.4 43
2020-10-30 14:00:00 25.1 11 Noroeste 18 Noroeste 0 1019.7 -1.1 43
2020-10-30 13:00:00 23.5 5 Noroeste 15 Noroeste 0 1020.2 -0.5 40
2020-10-30 12:00:00 21.2 10 Noroeste 15 Noroeste 0 1020.6 0.3 50
2020-10-30 11:00:00 20.5 5 Oeste 15 Noroeste 0 1020.8 -- 52
2020-10-30 10:00:00 18 0 Calma 13 Norte 0 1020.7 -- 59
2020-10-30 09:00:00 12.6 6 Noroeste 9 Norte 0 1020.3 -- 87
2020-10-30 08:00:00 8.9 0 Calma 8 Este 0 1019.8 -- 90
2020-10-30 07:00:00 9.9 3 Este 8 Sudeste 0 1019.6 -- 86
2020-10-30 06:00:00 10 0 Calma 9 Sudeste 0 1019.3 -- 86
2020-10-30 05:00:00 10.3 0 Calma 9 Noroeste 0 1019.4 -- 86
2020-10-30 04:00:00 10 0 Calma 2 Norte 0 1019.8 -- 87
2020-10-30 03:00:00 10.8 0 Calma 8 Sudoeste 0 1020 -- 84
2020-10-30 02:00:00 11.2 0 Calma 8 Nordeste 0 1020 -- 82
2020-10-30 01:00:00 12.1 4 Norte 11 Norte 0 1020.1 -- 78
2020-10-30 00:00:00 12.2 4 Norte 9 Norte 0 1020.4 -- 80
2020-10-29 23:00:00 12.8 0 Calma 4 Nordeste 0 1020.2 -- 76
2020-10-29 22:00:00 14.4 0 Calma 5 Este 0 1020 -- 67
2020-10-29 21:00:00 15.8 0 Calma 8 Sudoeste 0 1019.8 -- 61
2020-10-29 20:00:00 18.7 0 Calma 5 Sudoeste 0 1019.8 -- 43
2020-10-29 19:00:00 21.4 5 Sur 17 Este 0 1019.3 -- 37
2020-10-29 18:00:00 25.2 10 Este 24 Este 0 1018.9 -- 32
2020-10-29 17:00:00 27.3 13 Este 24 Sudeste 0 1018.7 -- 27
2020-10-29 16:00:00 27.7 9 Este 21 Nordeste 0 1018.5 -- 27
2020-10-29 15:00:00 26.9 10 Nordeste 18 Nordeste 0 1018.8 -- 33
2020-10-29 14:00:00 25 4 Nordeste 13 Nordeste 0 1019.7 -- 43
2020-10-29 13:00:00 23.2 5 Nordeste 11 Nordeste 0 1020.7 -- 50
2020-10-29 12:00:00 21.2 2 Noroeste 9 Noroeste 0 1021.2 -- 53
2020-10-29 11:00:00 19 4 Sudoeste 11 Sur 0 1021.3 -- 59
2020-10-29 10:00:00 15.4 2 Este 8 Norte 0 1021.5 -- 81
2020-10-29 09:00:00 12.1 2 Norte 8 Noroeste 0 1020.9 -- 93
2020-10-29 08:00:00 9.2 0 Calma 8 Sudeste 0 1020.2 -- 97
2020-10-29 07:00:00 9.4 0 Calma 8 Norte 0 1019.9 -- 95
2020-10-29 06:00:00 9.8 0 Calma 4 Noroeste 0 1019.7 -- 94
2020-10-29 05:00:00 10.6 0 Calma 8 Sur 0 1019.4 -- 92
2020-10-29 04:00:00 12 4 Este 9 Este 0 1019.3 -- 88
2020-10-29 03:00:00 13.2 5 Norte 17 Norte 0 1019.4 -- 83
2020-10-29 02:00:00 13.8 9 Norte 13 Norte 0 1019.5 -- 82
2020-10-29 01:00:00 13.7 6 Noroeste 15 Norte 0 1019.7 -- 83
2020-10-29 00:00:00 15 13 Norte 22 Norte 0 1019.9 -- 79
2020-10-28 23:00:00 14.4 9 Noroeste 15 Norte 0 1020 -- 82
2020-10-28 22:00:00 14.7 13 Norte 15 Norte 0 1020.1 -- 82
2020-10-28 21:00:00 15.7 0 Calma 13 Norte 0 1019.7 -- 75
2020-10-28 20:00:00 16.9 10 Norte 18 Norte 0 1019.2 -- 70
2020-10-28 19:00:00 18.7 15 Norte 26 Norte 0 1018.5 -- 63
2020-10-28 18:00:00 20.9 17 Norte 32 Norte 0 1018.2 -- 55
2020-10-28 17:00:00 21.6 19 Norte 35 Norte 0 1018.3 -- 52
2020-10-28 16:00:00 22.3 25 Norte 35 Norte 0 1018.3 -- 49
2020-10-28 15:00:00 22 26 Norte 39 Norte 0 1018.5 -- 49
2020-10-28 14:00:00 22 26 Norte 37 Norte 0 1018.9 -- 50
2020-10-28 13:00:00 20.5 24 Norte 33 Norte 0 1019.5 -- 53
2020-10-28 12:00:00 20.5 25 Norte 35 Norte 0 1020 -- 53
2020-10-28 11:00:00 17.3 21 Norte 30 Norte 0 1019.7 -- 62
2020-10-28 10:00:00 14 19 Norte 24 Norte 0 1019.7 -- 73
2020-10-28 09:00:00 11.2 14 Norte 21 Norte 0 1019.1 -- 82
2020-10-28 08:00:00 9.3 12 Norte 21 Norte 0 1018.3 -- 87
2020-10-28 07:00:00 9.3 12 Norte 18 Norte 0 1018.1 -- 91
2020-10-28 06:00:00 9.5 10 Norte 13 Norte 0 1017.8 -- 93
2020-10-28 05:00:00 8.7 5 Norte 9 Norte 0 1017.8 -- 95
2020-10-28 04:00:00 8.6 3 Sudoeste 5 Sur 0 1017.9 -- 96
2020-10-28 03:00:00 9.1 4 Noroeste 11 Norte 0 1017.9 -- 95
2020-10-28 02:00:00 8.8 6 Norte 8 Norte 0 1018.2 -- 95
2020-10-28 01:00:00 9.3 4 Norte 5 Nordeste 0 1018.4 -- 94
2020-10-28 00:00:00 10.3 0 Calma 5 Este 0 1018.7 -- 90
2020-10-27 23:00:00 10.9 2 Este 8 Este 0 1018.7 -- 87
2020-10-27 22:00:00 11.7 4 Norte 9 Nordeste 0 1018.7 -- 82
2020-10-27 21:00:00 13.9 10 Oeste 17 Oeste 0 1018.6 -- 73
2020-10-27 20:00:00 14.7 10 Oeste 15 Oeste 0 1018.4 -- 68
2020-10-27 19:00:00 15.2 9 Oeste 15 Norte 0 1018 -- 62
2020-10-27 18:00:00 18.4 12 Norte 22 Norte 0 1017.5 -- 46
2020-10-27 17:00:00 19.4 16 Noroeste 24 Noroeste 0 1017.7 -- 40
2020-10-27 16:00:00 19.9 14 Norte 30 Norte 0 1017.7 -- 41
2020-10-27 15:00:00 19.3 15 Norte 26 Norte 0 1018 -- 45
2020-10-27 14:00:00 19.6 12 Norte 22 Norte 0 1018.6 -- 43
2020-10-27 13:00:00 18.9 10 Norte 22 Norte 0 1019.7 -- 48
2020-10-27 12:00:00 17.8 15 Noroeste 22 Noroeste 0 1020.1 -- 56
2020-10-27 11:00:00 16.2 12 Noroeste 17 Norte 0 1020.2 -- 64
2020-10-27 10:00:00 13.7 6 Norte 13 Norte 0 1020.1 -- 77
2020-10-27 09:00:00 9 0 Calma 5 Sur 0 1019.8 -- 93
2020-10-27 08:00:00 5.9 0 Calma 9 Norte 0 1019.4 -- 97
2020-10-27 07:00:00 6.3 0 Calma 8 Noroeste 0 1019.2 -- 96
2020-10-27 06:00:00 6.3 4 Oeste 8 Noroeste 0 1019 -- 96
2020-10-27 05:00:00 6.4 0 Calma 5 Norte 0 1018.8 -- 96
2020-10-27 04:00:00 7.3 0 Calma 5 Sudeste 0 1018.8 -- 93
2020-10-27 03:00:00 7.6 0 Calma 8 Norte 0 1019.4 -- 94
2020-10-27 02:00:00 8.2 4 Nordeste 9 Noroeste 0 1019.5 -- 92
2020-10-27 01:00:00 8.9 0 Calma 5 Norte 0 1019.9 -- 90
2020-10-27 00:00:00 10.2 0 Calma 5 Nordeste 0 1020.4 -- 86
2020-10-26 23:00:00 11.3 3 Norte 8 Norte 0 1020.5 -- 76
2020-10-26 22:00:00 11.2 4 Noroeste 9 Oeste 0 1020 -- 80
2020-10-26 21:00:00 12.1 0 Calma 11 Oeste 0 1019.6 -- 81
2020-10-26 20:00:00 14.1 7 Oeste 15 Oeste 0 1019.2 -- 70
2020-10-26 19:00:00 15.8 8 Oeste 17 Oeste 0 1018.7 -- 61
2020-10-26 18:00:00 18.2 12 Noroeste 26 Noroeste 0 1018.3 -- 49
2020-10-26 17:00:00 19.1 15 Noroeste 30 Noroeste 0 1018.3 -- 45
2020-10-26 16:00:00 19.1 22 Noroeste 32 Noroeste 0 1018.2 -- 45
2020-10-26 15:00:00 19.7 19 Noroeste 33 Noroeste 0 1018.3 -- 43
2020-10-26 14:00:00 19.5 20 Noroeste 33 Noroeste 0 1018.5 -- 45
2020-10-26 13:00:00 18.3 19 Noroeste 30 Noroeste 0 1019.2 -- 54
2020-10-26 12:00:00 17.6 20 Noroeste 32 Norte 0 1019.5 -- 60
2020-10-26 11:00:00 16.5 19 Noroeste 30 Noroeste 0 1019.5 -- 68
2020-10-26 10:00:00 15.5 17 Noroeste 26 Noroeste 0 1019.2 -- 82
2020-10-26 09:00:00 13.8 12 Noroeste 22 Noroeste 0 1018.7 -- 87
2020-10-26 08:00:00 12.1 17 Noroeste 22 Noroeste 0 1017.9 -- 93
2020-10-26 07:00:00 12.4 12 Norte 18 Norte 0 1017.4 -- 95
2020-10-26 06:00:00 13.3 15 Noroeste 22 Noroeste 0 1017 -- 93
2020-10-26 05:00:00 14.4 11 Oeste 21 Oeste 0 1016.9 -- 92
2020-10-26 04:00:00 14.8 15 Noroeste 24 Noroeste 0 1016.4 -- 89
2020-10-26 03:00:00 15.3 15 Oeste 26 Oeste 0 1016.6 -- 86
2020-10-26 02:00:00 15.3 9 Oeste 17 Oeste 0 1016.3 -- 97
2020-10-26 01:00:00 15.1 12 Oeste 45 Noroeste 1 1016.1 -- 97
2020-10-26 00:00:00 16.6 25 Noroeste 45 Sudoeste 1.9 1016 -- 96
2020-10-25 23:00:00 18.6 26 Sudoeste 42 Sudoeste 0 1015.4 -- 89
2020-10-25 22:00:00 18.2 24 Sudoeste 35 Sur 0 1015.8 -- 90
2020-10-25 21:00:00 17.6 27 Sudoeste 42 Sudoeste 0.3 1016.3 -- 91
2020-10-25 20:00:00 19.2 29 Sudoeste 41 Sudoeste 0 1016.5 -- 75
2020-10-25 19:00:00 19 23 Sudoeste 39 Sudoeste 0 1016.4 -- 75
2020-10-25 18:00:00 19.6 26 Sudoeste 41 Sudoeste 0 1016.7 -- 73
2020-10-25 17:00:00 20.3 28 Sudoeste 41 Sudoeste 0 1016.7 -- 67
2020-10-25 16:00:00 21.1 28 Sudoeste 39 Sudoeste 0 1016.9 -- 61
2020-10-25 15:00:00 21 25 Sudoeste 35 Sudoeste 0 1017.5 -- 63
2020-10-25 14:00:00 20.1 12 Oeste 26 Sudoeste 0 1018.6 -- 64
2020-10-25 13:00:00 20.8 14 Sudoeste 24 Oeste 0 1019.3 -- 61
2020-10-25 12:00:00 19.8 9 Sur 17 Sudoeste 0 1020 -- 67
2020-10-25 11:00:00 18.2 5 Sur 11 Sur 0 1020.3 -- 76
2020-10-25 10:00:00 15.3 3 Este 8 Este 0 1020.5 -- 92
2020-10-25 09:00:00 11.5 5 Este 8 Nordeste 0 1020 -- 100
2020-10-25 08:00:00 9.6 4 Nordeste 5 Nordeste 0 1020 -- 100
2020-10-25 07:00:00 9.3 0 Calma 5 Norte 0 1019.8 -- 100
2020-10-25 06:00:00 10 0 Calma 9 Este 0 1019.6 -- 100
2020-10-25 05:00:00 10.1 5 Este 9 Este 0 1019.6 -- 100
2020-10-25 04:00:00 9.4 5 Nordeste -- -- 0 1020.2 -- 100
2020-10-25 03:00:00 10.3 5 Nordeste 9 Este 0 1020.9 -- 100
2020-10-25 02:00:00 10.4 7 Nordeste 9 Nordeste 0 1021.3 -- 99
2020-10-25 01:00:00 11.8 5 Norte 8 Norte 0 1022 -- 98
2020-10-25 00:00:00 12.6 4 Este 5 Este 0 1022.2 -- 99
2020-10-24 23:00:00 13.5 4 Sudeste 5 Sudeste 0 1022.3 -- 97
2020-10-24 22:00:00 14.5 0 Calma -- -- 0 1022.1 -- 95
2020-10-24 21:00:00 16.2 5 Oeste 15 Oeste 0 1022.2 -- 91
2020-10-24 20:00:00 17.9 10 Oeste 17 Oeste 0 1021.8 -- 84
2020-10-24 19:00:00 20.1 12 Oeste 22 Sudoeste 0 1021.8 -- 61
2020-10-24 18:00:00 21.8 15 Sudoeste 22 Sudoeste 0 1021.8 -- 53
2020-10-24 17:00:00 22.6 15 Sudoeste 24 Sudoeste 0 1022 -- 53
2020-10-24 16:00:00 22.6 14 Oeste 24 Sudoeste 0 1022.3 -- 55
2020-10-24 15:00:00 23.2 9 Sudoeste 18 Sudoeste 0 1022.9 -- 54
2020-10-24 14:00:00 22.1 9 Oeste 15 Sudoeste 0 1023.7 -- 59
2020-10-24 13:00:00 20.9 6 Oeste 15 Oeste 0 1024.2 -- 65
2020-10-24 12:00:00 18.8 5 Sur 11 Sur 0 1024.5 -- 79
2020-10-24 11:00:00 16.1 2 Sudeste 5 Sudeste 0 1024.4 -- 89
2020-10-24 10:00:00 12.8 3 Este 5 Este 0 1024 -- 100
2020-10-24 09:00:00 10.2 4 Este 8 Este 0 1023.2 -- 100
2020-10-24 08:00:00 10.4 5 Nordeste -- -- 0 1023.2 -- 100
2020-10-24 07:00:00 10.2 5 Nordeste 8 Este 0 1023.2 -- 99
2020-10-24 06:00:00 11.4 4 Nordeste 5 Este 0 1023 -- 100
2020-10-24 05:00:00 10.9 5 Nordeste -- -- 0 1023.2 -- 99
2020-10-24 04:00:00 11.7 0 Calma 8 Nordeste 0 1023.5 -- 99
2020-10-24 03:00:00 12.2 -- -- -- -- 0 1023.5 -- 98
2020-10-24 02:00:00 12.5 5 Este 8 Nordeste 0 1023.6 -- 98
2020-10-24 01:00:00 12.7 6 Nordeste 9 Este 0 1023.7 -- 98
2020-10-24 00:00:00 13 6 Este -- -- 0 1023.7 -- 97
2020-10-23 23:00:00 13.8 0 Calma 9 Este 0 1023.1 -- 96
2020-10-23 22:00:00 15 0 Calma 9 Sudoeste 0 1022.7 -- 92
2020-10-23 21:00:00 16.6 5 Oeste 13 Sudoeste 0 1022.3 -- 85
2020-10-23 20:00:00 18 8 Sudoeste 17 Sudoeste 0 1021.5 -- 76
2020-10-23 19:00:00 20.4 14 Sudoeste 22 Sudoeste 0 1021.3 -- 66
2020-10-23 18:00:00 21.9 15 Sudoeste 24 Sudoeste 0 1021.2 -- 58
2020-10-23 17:00:00 22.8 14 Sudoeste 22 Sudoeste 0 1020.9 -- 53
2020-10-23 16:00:00 22.1 10 Oeste 21 Oeste 0 1020.7 -- 57
2020-10-23 15:00:00 21.5 11 Noroeste 26 Oeste 0 1020.9 -- 59
2020-10-23 14:00:00 20.6 8 Sudoeste 17 Oeste 0 1021.1 -- 62
2020-10-23 13:00:00 20.9 6 Sudeste 13 Sudeste 0 1021.4 -- 65
2020-10-23 12:00:00 19.9 2 Este 13 Oeste 0 1021.3 -- 68
2020-10-23 11:00:00 17.9 5 Este 11 Este 0 1021.2 -- 88
2020-10-23 10:00:00 15.2 3 Nordeste 8 Este 0 1020.2 -- 97
2020-10-23 09:00:00 13.4 0 Calma 5 Nordeste 0 1019.5 -- 100
2020-10-23 08:00:00 13 5 Nordeste 5 Nordeste 0 1019 -- 100
2020-10-23 07:00:00 12.9 2 Nordeste 5 Este 0 1018.3 -- 100
2020-10-23 06:00:00 13.7 5 Sudeste 9 Sudeste 0.1 1018 -- 99
2020-10-23 05:00:00 14.2 5 Norte 15 Noroeste 0.2 1017.7 -- 99
2020-10-23 04:00:00 13.3 3 Norte 8 Norte 0 1017.3 -- 99
2020-10-23 03:00:00 13.9 4 Este 8 Este 0 1017.1 -- 99
2020-10-23 02:00:00 13.3 3 Norte 8 Norte 0.1 1016.8 -- 99
2020-10-23 01:00:00 14.1 5 Este 5 Este 0 1016.5 -- 99
2020-10-23 00:00:00 14.7 3 Oeste -- -- 0 1016.1 -- 98
2020-10-22 23:00:00 15.1 4 Sur 8 Sur 0 1015.3 -- 98
2020-10-22 22:00:00 15.6 8 Sur 9 Sur 0 1014.7 -- 96
2020-10-22 21:00:00 16.9 6 Sur 18 Sur 0 1014.2 -- 91
2020-10-22 20:00:00 18 13 Sur 28 Sur 0 1013.1 -- 87
2020-10-22 19:00:00 18.8 15 Sur 39 Sur 0.1 1012.2 -- 88
2020-10-22 18:00:00 20.1 22 Sudoeste 30 Sur 0 1011.6 -- 78
2020-10-22 17:00:00 20.9 21 Sudoeste 30 Sudoeste 0.1 1010.9 -- 78
2020-10-22 16:00:00 18.4 19 Oeste 30 Sudoeste 1.1 1010.7 -- 90
2020-10-22 15:00:00 19.4 19 Sur 30 Sur 5.3 1010.7 -- 87
2020-10-22 14:00:00 20 23 Sur 35 Sur 0.1 1010.9 -- 87
2020-10-22 13:00:00 19.4 19 Sur 28 Sur 0 1011.1 -- 88
2020-10-22 12:00:00 18.2 12 Sur 24 Sur 0 1011.2 -- 93
2020-10-22 11:00:00 17.7 9 Sudeste 17 Sur 0 1010.8 -- 94
2020-10-22 10:00:00 16.9 3 Sudeste 15 Sudeste 0 1010 -- 96
2020-10-22 09:00:00 16.5 8 Sudeste 17 Sur 0 1009 -- 96
2020-10-22 08:00:00 16.2 10 Sur 18 Sur 0 1008.6 -- 96
2020-10-22 07:00:00 16 10 Sur 22 Sur 0 1008.4 -- 95
2020-10-22 06:00:00 16.2 14 Sur 24 Sur 0.6 1008.7 -- 95
2020-10-22 05:00:00 16.4 8 Sur 22 Sur 3.8 1008.9 -- 98
2020-10-22 04:00:00 16.6 18 Sur 32 Sur 7.6 1009.5 -- 91
2020-10-22 03:00:00 18.6 5 Sur 17 Sudeste 0.2 1009.3 -- 88
2020-10-22 02:00:00 18.9 10 Sudeste 17 Sur 0 1009.2 -- 90
2020-10-22 01:00:00 19.2 13 Sur 26 Sur 0 1009.5 -- 88
2020-10-22 00:00:00 19.1 13 Sur 21 Sur 0 1009.7 -- 91
2020-10-21 23:00:00 19.3 14 Sur 26 Sur 0 1009.4 -- 88
2020-10-21 22:00:00 19.5 15 Sur 33 Sur 0 1009.3 -- 88
2020-10-21 21:00:00 19.6 16 Sur 26 Sur 0 1009 -- 88
2020-10-21 20:00:00 19.9 17 Sur 30 Sur 0 1008.7 -- 82
2020-10-21 19:00:00 20.9 19 Sur 35 Sur 0 1008.3 -- 80
2020-10-21 18:00:00 22.1 28 Sur 35 Sur 0 1008 -- 72
2020-10-21 17:00:00 22.3 25 Sur 42 Sudoeste 0 1007.9 -- 71
2020-10-21 16:00:00 23.3 28 Sur 39 Sur 0 1008.1 -- 64
2020-10-21 15:00:00 23 28 Sur 37 Sudoeste 0 1008.4 -- 65
2020-10-21 14:00:00 22.7 24 Sur 35 Sur 0 1009.2 -- 67
2020-10-21 13:00:00 21.2 22 Sudoeste 33 Sur 0 1009.2 -- 74
2020-10-21 12:00:00 20.3 20 Sur 26 Sur 0 1009.4 -- 84
2020-10-21 11:00:00 19.2 10 Sur 17 Sur 0 1008.7 -- 90
2020-10-21 10:00:00 18.2 7 Sur 17 Sur 0 1008.2 -- 93
2020-10-21 09:00:00 17.2 10 Sur 18 Sur 0 1007.6 -- 95
2020-10-21 08:00:00 17.6 13 Sur 22 Sudeste 0 1007 -- 94
2020-10-21 07:00:00 17.3 14 Sur 21 Sur 0 1006.3 -- 95
2020-10-21 06:00:00 16.4 10 Sur 22 Sur 0 1005.7 -- 97
2020-10-21 05:00:00 16.6 19 Sur 58 Sur 3.4 1005.7 -- 94
2020-10-21 04:00:00 17.6 12 Sudeste 22 Sur 0 1005.6 -- 94
2020-10-21 03:00:00 17.8 17 Sur 30 Sur 0 1006 -- 89
2020-10-21 02:00:00 18.4 18 Sur 30 Sur 0 1005.9 -- 93
2020-10-21 01:00:00 18.4 16 Sur 30 Sur 0 1006.1 -- 94
2020-10-21 00:00:00 18.3 19 Sur 33 Sur 0.1 1005.9 -- 95
2020-10-20 23:00:00 18.1 25 Sur 45 Sur 1.4 1005.2 -- 94
2020-10-20 22:00:00 19.2 34 Sur 85 Sur 3 1003.9 -- 94
2020-10-20 21:00:00 19.2 35 Sur 63 Sudeste 2.6 1002.6 -- 92
2020-10-20 20:00:00 19.5 28 Sur 52 Sur 1.7 1002.9 -- 84
2020-10-20 19:00:00 19.9 15 Sur 35 Sudeste 0.8 1002.7 -- 83
2020-10-20 18:00:00 21.8 24 Sur 52 Sudeste 0.1 1003.3 -- 70
2020-10-20 17:00:00 24.1 30 Sudeste 50 Sudeste 0 1003.4 -- 56
2020-10-20 16:00:00 24.1 32 Sudeste 55 Sudeste 0 1004 -- 55
2020-10-20 15:00:00 25.9 35 Sudeste 55 Sudeste 0 1004.1 -- 47
2020-10-20 14:00:00 25.1 33 Sudeste 55 Sur 0 1005.6 -- 52
2020-10-20 13:00:00 23.4 27 Sudeste 52 Sudeste 0 1006.9 -- 57
2020-10-20 12:00:00 22.5 31 Sudeste 55 Sur 0 1007.5 -- 61
2020-10-20 11:00:00 21.1 32 Sudeste 50 Sudeste 0 1008.4 -- 67
2020-10-20 10:00:00 20 31 Sudeste 46 Sudeste 0 1008.4 -- 72
2020-10-20 09:00:00 19.4 24 Sudeste 50 Sudeste 0 1008.4 0.2 74
2020-10-20 08:00:00 19.5 27 Sudeste 46 Sudeste 0 1007.8 -- 72
2020-10-20 07:00:00 19.6 26 Sudeste 46 Sudeste 0 1008.3 -- 71
2020-10-20 06:00:00 19.5 28 Sudeste 50 Sudeste 0 1008.2 -2.3 71
2020-10-20 05:00:00 19.4 27 Sudeste 48 Sudeste 0 1009.3 -1.6 72
2020-10-20 04:00:00 19.7 27 Sudeste 46 Sudeste 0 1010 -- 71
2020-10-20 03:00:00 19.8 26 Sudeste 42 Sur 0 1010.5 -1.2 70
2020-10-20 02:00:00 19.9 23 Sur 42 Sudeste 0 1010.9 -0.5 67
2020-10-20 01:00:00 19.8 24 Sudeste 41 Sudeste 0 1011.1 -- 65
2020-10-20 00:00:00 19.7 21 Sur 33 Sudeste 0 1011.7 0.1 63
2020-10-19 23:00:00 19.5 19 Sur 33 Sur 0 1011.4 0.3 63
2020-10-19 22:00:00 19.7 18 Sur 33 Sudeste 0 1011.1 -- 60
2020-10-19 21:00:00 20.4 18 Sur 35 Sur 0 1011.6 -- 54
2020-10-19 20:00:00 21.6 19 Sur 48 Sudeste 0 1011.1 0.4 46
2020-10-19 19:00:00 23.3 30 Sudeste 55 Sudeste 0 1010.3 -- 38
2020-10-19 18:00:00 24.7 31 Sudeste 58 Sudeste 0 1010.5 -- 34
2020-10-19 17:00:00 26.3 31 Sudeste 54 Sudeste 0 1010.7 -- 33
2020-10-19 16:00:00 26.1 33 Sudeste 58 Sudeste 0 1011.1 -- 32
2020-10-19 15:00:00 26.8 40 Sudeste 65 Sudeste 0 1011.6 -- 33
2020-10-19 14:00:00 26.6 39 Sudeste 59 Sudeste 0 1012.3 -- 35
2020-10-19 13:00:00 25.6 33 Sudeste 55 Sudeste 0 1012.7 -- 37
2020-10-19 12:00:00 24.6 27 Sudeste 55 Sudeste 0 1012.8 -- 38
2020-10-19 11:00:00 22.6 32 Sudeste 52 Sudeste 0 1012.4 -- 37
2020-10-19 10:00:00 20.9 10 Este 26 Sudeste 0 1012.5 -- 33
2020-10-19 09:00:00 18.6 14 Sudeste 24 Sudeste 0 1011.7 -- 33
2020-10-19 08:00:00 17.2 5 Nordeste 39 Sudeste 0 1011.9 -- 39
2020-10-19 07:00:00 19.5 28 Sudeste 48 Sudeste 0 1011.9 -- 38
2020-10-19 06:00:00 19.4 25 Sudeste 41 Este 0 1012 -- 35
2020-10-19 05:00:00 19.1 9 Este 24 Sudeste 0 1012.2 -- 28
2020-10-19 04:00:00 19.5 6 Este 24 Sudeste 0 1012.3 -- 27
2020-10-19 03:00:00 19.3 12 Sudeste 26 Sur 0 1012.5 -- 28
2020-10-19 02:00:00 19.2 13 Sudeste 24 Sudeste 0 1012.8 -- 28
2020-10-19 01:00:00 18.8 11 Este 24 Sudeste 0 1013.3 -- 31
2020-10-19 00:00:00 18.4 9 Sudeste 28 Este 0 1013.5 -- 36
2020-10-18 23:00:00 18.5 12 Este 26 Este 0 1013.5 -- 34
2020-10-18 22:00:00 16.4 5 Este 13 Este 0 1013.4 -- 37
2020-10-18 21:00:00 19 8 Este 18 Sudeste 0 1013.2 -- 33
2020-10-18 20:00:00 21.6 12 Sudeste 24 Sudeste 0 1012.9 -- 29
2020-10-18 19:00:00 24.7 14 Sudeste 26 Sur 0 1012.6 -- 25
2020-10-18 18:00:00 26.3 17 Sudeste 33 Sudeste 0 1012.6 -- 24
2020-10-18 17:00:00 26.9 20 Sur 33 Sur 0 1012.8 -- 26
2020-10-18 16:00:00 27 20 Sur 35 Sudeste 0 1013.1 -- 27
2020-10-18 15:00:00 27.1 15 Este 32 Sudeste 0 1013.6 -- 29
2020-10-18 14:00:00 25.8 19 Sudeste 32 Sudeste 0 1014.7 -- 32
2020-10-18 13:00:00 25.1 21 Sudeste 32 Sudeste 0 1014.9 -- 32
2020-10-18 12:00:00 21.9 4 Sudeste 13 Nordeste 0 1015.1 -- 42
2020-10-18 11:00:00 17.4 9 Este 15 Este 0 1014.8 -- 54
2020-10-18 10:00:00 11.3 4 Nordeste 8 Norte 0 1014.7 -- 74
2020-10-18 09:00:00 6.7 0 Calma 9 Norte 0 1014.7 -- 87
2020-10-18 08:00:00 6.4 0 Calma 5 Noroeste 0 1014.6 -- 85
2020-10-18 07:00:00 7.4 0 Calma 8 Sur 0 1014.3 -- 79
2020-10-18 06:00:00 8.7 3 Este 13 Nordeste 0 1014.2 -- 84
2020-10-18 05:00:00 9.9 13 Nordeste 15 Nordeste 0 1014.5 -- 78
2020-10-18 04:00:00 8.9 5 Norte 8 Este 0 1015.2 -- 83
2020-10-18 03:00:00 8.5 5 Este 8 Este 0 1015.2 -- 85
2020-10-18 02:00:00 9.7 0 Calma 5 Norte 0 1015.3 -- 83
2020-10-18 01:00:00 10.6 5 Noroeste 11 Nordeste 0 1015.5 -- 80
2020-10-18 00:00:00 10.1 6 Nordeste 11 Este 0 1015.3 -- 79
2020-10-17 23:00:00 12.1 0 Calma -- -- 0 1015.2 -- 76
2020-10-17 22:00:00 13.4 5 Nordeste -- -- 0 1014.9 -- 69
2020-10-17 21:00:00 17 4 Oeste 15 Oeste 0 1014.8 -- 60
2020-10-17 20:00:00 18.9 10 Oeste 22 Oeste 0 1014.3 -- 55
2020-10-17 19:00:00 20.6 16 Oeste 30 Noroeste 0 1013.9 -- 51
2020-10-17 18:00:00 22.8 17 Oeste 28 Oeste 0 1013.5 -- 44
2020-10-17 17:00:00 24 4 Oeste 17 Oeste 0 1013.5 -- 37
2020-10-17 16:00:00 23.4 5 Oeste 18 Sudoeste 0 1013.8 -- 39
2020-10-17 15:00:00 23.3 12 Sur 21 Sur 0 1014.3 -- 38
2020-10-17 14:00:00 22.9 12 Sudoeste 21 Sudoeste 0 1015 -- 37
2020-10-17 13:00:00 21.8 9 Oeste 18 Oeste 0 1015.4 -- 42
2020-10-17 12:00:00 19.6 5 Sur 9 Sur 0 1015.8 -- 57
2020-10-17 11:00:00 16 3 Este 8 Este 0 1015.7 -- 64
2020-10-17 10:00:00 10.7 4 Este 8 Este 0 1015.2 -- 77
2020-10-17 09:00:00 6.2 3 Norte 5 Nordeste 0 1014.6 -- 91
2020-10-17 08:00:00 6.3 4 Este 5 Este 0 1014.1 -- 92
2020-10-17 07:00:00 6.7 5 Este -- -- 0 1013.9 -- 94
2020-10-17 06:00:00 7.2 5 Nordeste -- -- 0 1013.9 -- 92
2020-10-17 05:00:00 7.6 6 Este -- -- 0 1013.8 -- 93
2020-10-17 04:00:00 7.7 4 Norte -- -- 0 1014 -- 91
2020-10-17 03:00:00 8.4 -- -- -- -- 0 1014.2 -- 89
2020-10-17 02:00:00 9.4 4 Este 8 Este 0 1014.6 -- 91
2020-10-17 01:00:00 10 6 Este 9 Este 0 1014.9 -- 85
2020-10-17 00:00:00 11.3 5 Nordeste -- -- 0 1015 -- 86
2020-10-16 23:00:00 13.3 9 Sur 9 Sur 0 1014.9 -- 82
2020-10-16 22:00:00 14.9 6 Sudoeste 15 Sudoeste 0 1014.6 -- 80
2020-10-16 21:00:00 15.4 8 Sudoeste 17 Sur 0 1014.3 -- 64
2020-10-16 20:00:00 18.1 11 Sudoeste 18 Sudoeste 0 1013.8 -- 49
2020-10-16 19:00:00 21.4 16 Sudoeste 24 Sur 0 1013.4 -- 38
2020-10-16 18:00:00 22.8 17 Sudoeste 26 Sudoeste 0 1013.3 -- 35
2020-10-16 17:00:00 23.1 18 Sudoeste 30 Sudoeste 0 1013.5 -- 41
2020-10-16 16:00:00 23.4 13 Sur 26 Sudoeste 0 1013.6 -- 42
2020-10-16 15:00:00 23.4 17 Sudoeste 30 Sudoeste 0 1014 -- 45
2020-10-16 14:00:00 23.1 13 Sur 26 Sur 0 1014.8 -- 48
2020-10-16 13:00:00 22.5 12 Sur 24 Sur 0 1015.3 -- 47
2020-10-16 12:00:00 20.6 9 Sur 15 Sur 0 1015.6 -- 60
2020-10-16 11:00:00 16.9 9 Este 13 Este 0 1015.6 1.4 57
2020-10-16 10:00:00 11.8 6 Este 11 Este 0 1015.1 1.4 64
2020-10-16 09:00:00 6.9 4 Este 17 Nordeste 0 1014.5 0.7 78
2020-10-16 08:00:00 5.3 9 Nordeste 11 Nordeste 0 1014.2 -- 83
2020-10-16 07:00:00 6 8 Nordeste -- -- 0 1013.7 -- 77
2020-10-16 06:00:00 7.2 5 Este 11 Nordeste 0 1013.8 -- 72
2020-10-16 05:00:00 7.4 7 Nordeste 11 Nordeste 0 1013.8 -- 75
2020-10-16 04:00:00 8.2 8 Nordeste 11 Nordeste 0 1013.9 -- 72
2020-10-16 03:00:00 9 4 Este 11 Este 0 1014.1 -- 69
2020-10-16 02:00:00 8.3 6 Nordeste 9 Este 0 1014.4 -- 68
2020-10-16 01:00:00 10 7 Este 11 Este 0 1014.6 -- 65
2020-10-16 00:00:00 10.5 8 Este 11 Este 0 1014.8 -- 66
2020-10-15 23:00:00 11.8 5 Sudeste 9 Este 0 1014.6 -- 63
2020-10-15 22:00:00 14 8 Sudoeste 13 Sudoeste 0 1014.3 -- 58
2020-10-15 21:00:00 16.2 11 Sudoeste 18 Sudoeste 0 1014.1 -- 48
2020-10-15 20:00:00 18 11 Sudoeste 18 Oeste 0 1013.6 -- 38
2020-10-15 19:00:00 20.1 15 Oeste 30 Oeste 0 1013.3 -- 33
2020-10-15 18:00:00 21.6 17 Oeste 30 Oeste 0 1013 -0.8 29
2020-10-15 17:00:00 23.2 17 Oeste 32 Oeste 0 1012.9 -- 29
2020-10-15 16:00:00 23.5 7 Sudoeste 22 Sudoeste 0 1013.2 -- 27
2020-10-15 15:00:00 23.1 10 Noroeste 24 Noroeste 0 1013.8 -- 28
2020-10-15 14:00:00 22.2 6 Sudoeste 17 Sudoeste 0 1014.5 -- 31
2020-10-15 13:00:00 20.4 4 Sudoeste 11 Oeste 0 1015.3 -- 34
2020-10-15 12:00:00 18 2 Norte 9 Nordeste 0 1015.7 -- 45
2020-10-15 11:00:00 14.3 0 Calma 5 Noroeste 0 1015.8 -- 56
2020-10-15 10:00:00 9.6 0 Calma 8 Norte 0 1015.2 -- 71
2020-10-15 09:00:00 5.1 0 Calma 9 Sur 0 1014.5 -- 88
2020-10-15 08:00:00 4.3 6 Nordeste 8 Nordeste 0 1014.3 -- 85
2020-10-15 07:00:00 4.6 3 Nordeste 9 Nordeste 0 1014.1 -- 84
2020-10-15 06:00:00 5 5 Nordeste -- -- 0 1013.7 -0.3 84
2020-10-15 05:00:00 5.4 4 Nordeste 8 Este 0 1013.9 -- 82
2020-10-15 04:00:00 6.8 0 Calma 4 Noroeste 0 1014.1 -- 85
2020-10-15 03:00:00 7.8 0 Calma 8 Este 0 1014 -- 84
2020-10-15 02:00:00 8.9 0 Calma 8 Norte 0 1014 -- 84
2020-10-15 01:00:00 9.9 3 Norte 8 Noroeste 0 1013.8 -- 79
2020-10-15 00:00:00 11.4 2 Noroeste 9 Sur 0 1013.5 -- 80
2020-10-14 23:00:00 14.4 8 Sudoeste 13 Sur 0 1013.4 -- 76
2020-10-14 22:00:00 14.6 10 Sur 17 Sudoeste 0 1012.8 -- 73
2020-10-14 21:00:00 16.4 9 Sur 26 Sudoeste 0 1012.5 -- 64
2020-10-14 20:00:00 18.5 17 Sudoeste 30 Sudoeste 0 1012 -- 55
2020-10-14 19:00:00 20 21 Sudoeste 35 Sudoeste 0 1011.6 -- 49
2020-10-14 18:00:00 21.8 21 Oeste 33 Oeste 0 1011.2 -- 43
2020-10-14 17:00:00 22 23 Sudoeste 33 Sudoeste 0 1011.1 -- 41
2020-10-14 16:00:00 21.5 17 Oeste 33 Sudoeste 0 1011.3 -- 46
2020-10-14 15:00:00 21.7 15 Oeste 28 Oeste 0 1011.5 -- 47
2020-10-14 14:00:00 21 12 Oeste 26 Noroeste 0 1012 -- 47
2020-10-14 13:00:00 19.1 12 Noroeste 21 Norte 0 1012.4 -- 51
2020-10-14 12:00:00 16.9 10 Noroeste 22 Noroeste 0 1012.6 -- 59
2020-10-14 11:00:00 15 15 Noroeste 24 Noroeste 0 1012.6 -- 66
2020-10-14 10:00:00 13.1 14 Oeste 22 Oeste -- 1012.1 -- 73
2020-10-14 09:00:00 -- -- -- -- -- -- -- -- --
2020-10-14 08:00:00 12 7 Oeste 13 Oeste 0 1011.2 -- 75
2020-10-14 07:00:00 13.3 9 Oeste 21 Oeste 0 1011 -- 73
2020-10-14 06:00:00 14.6 12 Oeste 18 Oeste 0 1010.7 -- 79
2020-10-14 05:00:00 13.2 5 Oeste 15 Oeste 0 1010.6 -- 77
2020-10-14 04:00:00 10.1 0 Calma 5 Sudoeste 0 1011.2 -- 76
2020-10-14 03:00:00 10.9 0 Calma 5 Sur 0 1011.4 -- 75
2020-10-14 02:00:00 11.7 0 Calma 5 Nordeste 0 1011.7 -- 76
2020-10-14 01:00:00 12.2 4 Este 8 Este 0 1012 -- 69
2020-10-14 00:00:00 13.3 6 Sudeste 9 Sudeste 0 1012.3 -- 67
2020-10-13 23:00:00 16.1 6 Sudeste 13 Sudoeste 0 1012.1 -- 62
2020-10-13 22:00:00 18.4 5 Oeste 21 Oeste 0 1012.2 -- 57
2020-10-13 21:00:00 19.8 14 Oeste 24 Oeste 0 1012 -- 37
2020-10-13 20:00:00 22.1 13 Oeste 28 Oeste 0 1011.5 -- 28
2020-10-13 19:00:00 25.1 18 Oeste 26 Oeste 0 1011.7 -- 28
2020-10-13 18:00:00 27.5 13 Norte 32 Noroeste 0 1011.5 -- 21
2020-10-13 17:00:00 27.7 14 Noroeste 26 Norte 0 1012 -- 20
2020-10-13 16:00:00 27.5 13 Norte 26 Norte 0 1012.5 -- 20
2020-10-13 15:00:00 26.6 17 Norte 33 Norte 0 1013.4 -- 21
2020-10-13 14:00:00 25.7 17 Norte 30 Norte 0 1014.4 -- 23
2020-10-13 13:00:00 23 6 Norte 17 Norte 0 1015.3 -- 29
2020-10-13 12:00:00 20.3 6 Noroeste 11 Norte 0 1015.8 -- 40
2020-10-13 11:00:00 -- -- -- -- -- -- -- -- --
2020-10-13 10:00:00 -- -- -- -- -- -- -- -- --
2020-10-13 09:00:00 6 4 Norte -- -- 0 1015.5 -- 76
2020-10-13 08:00:00 5.7 5 Norte 8 Nordeste 0 1015.3 -- 77
2020-10-13 07:00:00 6.5 5 Nordeste 8 Este 0 1015.2 -- 75
2020-10-13 06:00:00 7 2 Este 9 Nordeste 0 1015.3 -1 70
2020-10-13 05:00:00 7.7 0 Calma 8 Nordeste 0 1015.6 -- 65
2020-10-13 04:00:00 -- -- -- -- -- -- -- -- --
2020-10-13 03:00:00 8.6 8 Nordeste 11 Nordeste 0 1016.3 -1 54
2020-10-13 02:00:00 9.3 5 Este 9 Norte 0 1016.7 -- 47
2020-10-13 01:00:00 -- -- -- -- -- -- -- -- --
2020-10-13 00:00:00 12.3 2 Este 8 Sudeste 0 1017.3 0.9 40
2020-10-12 23:00:00 14.3 4 Sur 13 Sur 0 1017.1 -- 34
2020-10-12 22:00:00 15.9 3 Este 13 Nordeste 0 1016.7 1 30
2020-10-12 21:00:00 17.6 9 Nordeste 17 Nordeste 0 1016.4 -- 25
2020-10-12 20:00:00 22 13 Nordeste 26 Norte 0 1016 -- 19
2020-10-12 19:00:00 25.5 19 Norte 37 Norte 0 1015.7 -- 16
2020-10-12 18:00:00 -- -- -- -- -- -- -- -- --
2020-10-12 17:00:00 27.4 21 Norte 37 Norte 0 1015.8 -- 15
2020-10-12 16:00:00 27.1 21 Norte 32 Norte 0 1016.1 -- 18
2020-10-12 15:00:00 26.6 17 Norte 30 Norte 0 1016.9 -1.8 22
2020-10-12 14:00:00 25.5 15 Nordeste 28 Norte 0 1017.8 -- 27
2020-10-12 13:00:00 24 15 Norte 28 Norte 0 1018.3 -0.3 29
2020-10-12 12:00:00 21.8 17 Norte 28 Norte 0 1018.7 -- 29
2020-10-12 11:00:00 19.7 18 Norte 22 Norte 0 1018.6 -- 32
2020-10-12 10:00:00 14.9 3 Norte 9 Norte 0 1018.6 -- 44
2020-10-12 09:00:00 9.3 3 Sudeste 9 Noroeste 0 1018 -- 65
2020-10-12 08:00:00 10.3 3 Sur 9 Sudoeste 0 1017.9 1.1 59
2020-10-12 07:00:00 10.5 5 Sudoeste 11 Sur 0 1017.4 -- 76
2020-10-12 06:00:00 12.2 4 Nordeste 18 Norte 0 1016.9 -0.2 50
2020-10-12 05:00:00 11.2 6 Nordeste 9 Norte 0 1016.8 -- 63
2020-10-12 04:00:00 -- -- -- -- -- -- -- -- --
2020-10-12 03:00:00 12.2 8 Norte 11 Norte 0 1017.1 -- 93
2020-10-12 02:00:00 12.9 5 Nordeste 11 Nordeste 0 1017 0.1 94
2020-10-12 01:00:00 15.1 0 Calma 8 Sudoeste 0 1016.9 -- 90
2020-10-12 00:00:00 17.5 6 Sudoeste 11 Sur 0 1016.9 -- 89
2020-10-11 23:00:00 17.7 0 Calma 11 Sur 0 1016.9 1.5 83
2020-10-11 22:00:00 19.7 6 Sur 11 Oeste 0 1016.6 -- 76
2020-10-11 21:00:00 -- -- -- -- -- -- -- -- --
2020-10-11 20:00:00 -- -- -- -- -- -- -- -- --
2020-10-11 19:00:00 27.6 8 Norte 18 Norte 0 1015.4 -- 41
2020-10-11 18:00:00 28.1 14 Norte 33 Noroeste 0 1015.7 -0.9 45
2020-10-11 17:00:00 28.4 13 Norte 28 Norte 0 1015.7 -1.6 47
2020-10-11 16:00:00 27.9 7 Norte 22 Norte 0 1015.9 -- 47
2020-10-11 15:00:00 27.3 6 Norte 21 Norte 0 1016.6 -- 49
2020-10-11 14:00:00 26.2 5 Norte 15 Norte 0 1017.3 -- 53
2020-10-11 13:00:00 25.2 6 Nordeste 17 Norte 0 1017.8 -- 56
2020-10-11 12:00:00 23.2 5 Norte 13 Norte 0 1017.9 -- 63
2020-10-11 11:00:00 20.5 5 Este 9 Nordeste 0 1017.8 -- 73
2020-10-11 10:00:00 16.6 2 Este 8 Nordeste 0 1017.4 -- 82
2020-10-11 09:00:00 11.3 6 Este -- -- 0 1016.6 -- 94
2020-10-11 08:00:00 11.5 4 Nordeste 9 Nordeste 0 1016.4 -- 92
2020-10-11 07:00:00 12.4 0 Calma 5 Norte 0 1016.1 -- 92
2020-10-11 06:00:00 12.5 0 Calma -- -- 0 1016 -- 93
2020-10-11 05:00:00 13.2 2 Nordeste 5 Este 0 1016.1 -- 92
2020-10-11 04:00:00 13.4 0 Calma 5 Sudeste 0 1016.3 -- 88
2020-10-11 03:00:00 14.3 0 Calma -- -- 0 1016.5 -- 91
2020-10-11 02:00:00 14.7 4 Nordeste -- -- 0 1016.8 -- 87
2020-10-11 01:00:00 16.4 4 Este 8 Este 0 1017 -- 85
2020-10-11 00:00:00 17.3 0 Calma 9 Sudoeste 0 1017 -- 84
2020-10-10 23:00:00 18.4 7 Sudoeste 9 Sudoeste 0 1016.8 -- 82
2020-10-10 22:00:00 20.2 7 Oeste 13 Oeste 0 1016.6 -- 75
2020-10-10 21:00:00 20.4 10 Sudoeste 17 Sudoeste 0 1015.9 -- 73
2020-10-10 20:00:00 22.9 12 Sudoeste 22 Oeste 0 1016 -- 65
2020-10-10 19:00:00 25 16 Oeste 26 Oeste 0 1015.8 -- 59
2020-10-10 18:00:00 27.8 14 Oeste 26 Oeste 0 1015.5 -- 50
2020-10-10 17:00:00 28.6 17 Oeste 30 Oeste 0 1015.6 -- 47
2020-10-10 16:00:00 30.1 5 Norte 17 Sur 0 1015.8 -- 38
2020-10-10 15:00:00 29.3 8 Sur 18 Sur 0 1016.5 -- 41
2020-10-10 14:00:00 28.2 9 Sudoeste 15 Sur 0 1017.5 -- 42
2020-10-10 13:00:00 25.9 6 Este 13 Este 0 1017.9 -- 48
2020-10-10 12:00:00 23.7 4 Sudeste 9 Sudoeste 0 1018.5 -- 56
2020-10-10 11:00:00 20.6 2 Sudoeste 8 Oeste 0 1018.3 -- 66
2020-10-10 10:00:00 16.9 0 Calma 8 Norte 0 1017.8 -- 76
2020-10-10 09:00:00 12.5 8 Norte 9 Norte 0 1017.3 -- 89
2020-10-10 08:00:00 12.4 4 Este 9 Nordeste 0 1017.1 -- 84
2020-10-10 07:00:00 12.6 8 Nordeste 11 Este 0 1016.9 -- 81
2020-10-10 06:00:00 12 5 Este 8 Este 0 1016.8 -- 83
2020-10-10 05:00:00 12.9 0 Calma 9 Sudoeste 0 1016.9 -- 79
2020-10-10 04:00:00 13.6 7 Sudoeste 11 Sur 0 1017.3 -- 82
2020-10-10 03:00:00 13.7 2 Este 8 Norte 0 1017.3 -- 78
2020-10-10 02:00:00 14.4 4 Nordeste 5 Nordeste 0 1017.3 -- 78
2020-10-10 01:00:00 15.4 0 Calma 5 Sudeste 0 1017.5 -- 79
2020-10-10 00:00:00 15.8 4 Norte 5 Nordeste 0 1017.9 -- 76
2020-10-09 23:00:00 18.2 5 Sudoeste 11 Sur 0 1017.6 -- 72
2020-10-09 22:00:00 19.5 7 Sur 15 Sur 0 1017.2 -- 63
2020-10-09 21:00:00 21.2 12 Sur 18 Sur 0 1017.1 -- 60
2020-10-09 20:00:00 24.6 16 Sur 22 Sudoeste 0 1016.5 -- 52
2020-10-09 19:00:00 30.4 10 Sur 21 Sur 0 1016.1 -- 33
2020-10-09 18:00:00 30.5 4 Este 17 Este 0 1015.9 -- 30
2020-10-09 17:00:00 30.6 7 Oeste 15 Oeste 0 1016.2 -- 30
2020-10-09 16:00:00 29.7 5 Noroeste 15 Oeste 0 1016.5 -- 31
2020-10-09 15:00:00 28.9 6 Oeste 11 Oeste 0 1017.4 -- 33
2020-10-09 14:00:00 26 5 Norte 13 Noroeste 0 1018.2 -- 39
2020-10-09 13:00:00 24.8 6 Norte 11 Norte 0 1018.6 -- 46
2020-10-09 12:00:00 23.2 4 Este 9 Nordeste 0 1018.6 -- 54
2020-10-09 11:00:00 21.1 5 Nordeste 8 Nordeste 0 1018.5 -- 57
2020-10-09 10:00:00 17.2 0 Calma 5 Noroeste 0 1018.1 -- 62
2020-10-09 09:00:00 12.6 4 Norte 8 Este 0 1017.6 -- 76
2020-10-09 08:00:00 12.8 3 Sur 5 Sur 0 1017.2 -- 75
2020-10-09 07:00:00 12.6 5 Sudeste 8 Sudeste 0 1017.1 -- 74
2020-10-09 06:00:00 12.5 0 Calma 8 Sur 0 1017 -- 70
2020-10-09 05:00:00 14 0 Calma 5 Norte 0 1017.3 -- 74
2020-10-09 04:00:00 14.2 0 Calma 5 Norte 0 1017.3 -- 69
2020-10-09 03:00:00 14.9 7 Norte 17 Noroeste 0 1017.4 -- 64
2020-10-09 02:00:00 15.8 0 Calma 9 Norte 0 1017.6 -- 62
2020-10-09 01:00:00 15.5 8 Norte 9 Norte 0 1017.6 -- 64
2020-10-09 00:00:00 17.9 5 Sudeste -- -- 0 1017.6 -- 55
2020-10-08 23:00:00 18.4 4 Este 5 Este 0 1017.2 -- 56
2020-10-08 22:00:00 21.4 3 Este 13 Sudeste 0 1017 -- 45
2020-10-08 21:00:00 24.5 7 Sudeste 18 Sudeste 0 1016.7 -- 39
2020-10-08 20:00:00 26.7 13 Sudeste 32 Sudeste 0 1016.1 -- 36
2020-10-08 19:00:00 29.4 17 Sudeste 32 Sudeste 0 1015.5 -- 31
2020-10-08 18:00:00 31.6 15 Sudeste 30 Sur 0 1015.7 -- 28
2020-10-08 17:00:00 32.3 20 Sur 33 Sudeste 0 1015.6 -- 27
2020-10-08 16:00:00 33.1 17 Sur 28 Sur 0 1015.6 -- 26
2020-10-08 15:00:00 32.6 7 Sudeste 18 Sur 0 1016.2 -- 27
2020-10-08 14:00:00 31.6 12 Este 24 Sudeste 0 1017 -- 28
2020-10-08 13:00:00 30.6 12 Este 41 Este 0 1017.4 -- 29
2020-10-08 12:00:00 28.8 8 Este 17 Este 0 1017.7 -- 33
2020-10-08 11:00:00 23.7 3 Este 8 Este 0 1017.8 -- 41
2020-10-08 10:00:00 17 0 Calma 5 Sur 0 1017.6 -- 59
2020-10-08 09:00:00 13.3 0 Calma 13 Este 0 1016.9 -- 71
2020-10-08 08:00:00 12.5 3 Norte 11 Norte 0 1016.8 -- 68
2020-10-08 07:00:00 12.6 2 Norte 9 Norte 0 1016.4 -- 73
2020-10-08 06:00:00 13.8 0 Calma 8 Nordeste 0 1016 -- 71
2020-10-08 05:00:00 13.8 7 Este 8 Este 0 1015.9 -- 70
2020-10-08 04:00:00 14.7 0 Calma 11 Este 0 1016.4 -- 65
2020-10-08 03:00:00 14.3 8 Este 9 Este 0 1016.5 -- 62
2020-10-08 02:00:00 14.1 5 Nordeste 8 Nordeste 0 1016.8 -- 67
2020-10-08 01:00:00 15.3 5 Norte 5 Norte 0 1017.2 -- 65
2020-10-08 00:00:00 16.6 3 Nordeste 5 Norte 0 1017.1 -- 61
2020-10-07 23:00:00 17.8 5 Norte 8 Norte 0 1016.9 -- 59
2020-10-07 22:00:00 20.7 0 Calma 8 Sur 0 1016.5 -- 58
2020-10-07 21:00:00 24.1 5 Sur 17 Sudoeste 0 1016.1 -- 45
2020-10-07 20:00:00 27.7 12 Sudoeste 24 Sudoeste 0 1015.8 -- 36
2020-10-07 19:00:00 31.5 17 Sur 28 Sur 0 1015.2 -- 27
2020-10-07 18:00:00 33.6 8 Sudoeste 17 Oeste 0 1014.9 -- 23
2020-10-07 17:00:00 33.7 6 Sur 21 Sur 0 1015.3 -- 24
2020-10-07 16:00:00 32.8 6 Este 18 Sudeste 0 1015.9 -- 26
2020-10-07 15:00:00 31.6 6 Noroeste 17 Noroeste 0 1016.7 -- 29
2020-10-07 14:00:00 29.4 2 Noroeste 13 Este 0 1017.6 -- 32
2020-10-07 13:00:00 26.9 6 Norte 13 Este 0 1018.2 -- 37
2020-10-07 12:00:00 24.1 6 Este 13 Este 0 1018.6 -- 43
2020-10-07 11:00:00 20.6 2 Noroeste 8 Noroeste 0 1018.4 -- 53
2020-10-07 10:00:00 16.7 4 Este 5 Nordeste 0 1018.2 -- 63
2020-10-07 09:00:00 11.5 0 Calma 5 Sur 0 1017.9 -- 77
2020-10-07 08:00:00 11.3 5 Norte 9 Norte 0 1017.7 -- 80
2020-10-07 07:00:00 12.3 5 Norte 8 Norte 0 1017.6 -- 78
2020-10-07 06:00:00 13.4 7 Este 9 Este 0 1017.5 -- 72
2020-10-07 05:00:00 12.6 6 Nordeste 9 Norte 0 1017.6 -- 77
2020-10-07 04:00:00 12.9 6 Nordeste 8 Nordeste 0 1017.8 -- 75
2020-10-07 03:00:00 13.4 3 Nordeste 8 Sudeste 0 1018.1 -- 76
2020-10-07 02:00:00 14.6 6 Sudeste 8 Sudeste 0 1018.4 -- 72
2020-10-07 01:00:00 14.9 4 Norte 8 Sudeste 0 1018.6 -- 71
2020-10-07 00:00:00 16 0 Calma 5 Oeste 0 1018.8 -- 70
2020-10-06 23:00:00 18.3 3 Sudoeste 13 Noroeste 0 1018.8 -- 62
2020-10-06 22:00:00 20.2 6 Noroeste 13 Sudoeste 0 1018.5 -- 60
2020-10-06 21:00:00 22.2 10 Sudoeste 22 Oeste 0 1018.2 -- 54
2020-10-06 20:00:00 25.8 13 Norte 22 Norte 0 1017.3 -- 37
2020-10-06 19:00:00 28.5 20 Norte 33 Norte 0 1017 -- 32
2020-10-06 18:00:00 29.1 22 Norte 30 Norte 0 1017.1 -- 29
2020-10-06 17:00:00 29.1 16 Norte -- -- -- 1017.3 -- 28
2020-10-06 16:00:00 28.7 20 Norte 35 Norte 0 1018.1 -- 29
2020-10-06 15:00:00 28.3 23 Norte 37 Norte 0 1019.1 -- 28
2020-10-06 14:00:00 27.1 15 Norte 28 Nordeste 0 1019.8 -- 30
2020-10-06 13:00:00 25.4 12 Norte 22 Norte 0 1020.4 -- 33
2020-10-06 12:00:00 22.5 5 Nordeste 11 Nordeste 0 1020.6 -- 40
2020-10-06 11:00:00 19.2 3 Norte 11 Norte 0 1020.5 -- 50
2020-10-06 10:00:00 14.9 5 Sudeste 9 Sudeste 0 1019.9 -- 68
2020-10-06 09:00:00 9.5 0 Calma 8 Sur 0 1019.4 -- 89
2020-10-06 08:00:00 10.1 3 Sur 11 Sur 0 1018.8 -- 88
2020-10-06 07:00:00 10.8 0 Calma 13 Nordeste 0 1018.6 -- 84
2020-10-06 06:00:00 12 8 Norte 11 Norte 0 1018.8 -- 87
2020-10-06 05:00:00 11 2 Norte 11 Norte 0 1018.6 -- 91
2020-10-06 04:00:00 10.8 0 Calma 13 Noroeste 0 1018.5 -- 83
2020-10-06 03:00:00 10.7 3 Este -- -- 0 1018.6 -- 84
2020-10-06 02:00:00 11.6 4 Nordeste 11 Norte 0 1018.4 -- 85
2020-10-06 01:00:00 11.6 5 Norte 11 Norte 0 1018.4 -- 86
2020-10-06 00:00:00 13.1 5 Nordeste 9 Nordeste 0 1018.4 -- 78
2020-10-05 23:00:00 13.7 5 Nordeste 8 Norte 0 1018.3 -- 78
2020-10-05 22:00:00 16.9 3 Oeste 17 Sudoeste 0 1017.7 -- 72
2020-10-05 21:00:00 19.2 12 Oeste 18 Oeste 0 1017.1 -- 59
2020-10-05 20:00:00 21 15 Oeste 24 Oeste 0 1016.6 -- 53
2020-10-05 19:00:00 23.8 13 Oeste 26 Noroeste 0 1016.1 -- 41
2020-10-05 18:00:00 24.7 13 Noroeste 28 Norte 0 1016 -- 35
2020-10-05 17:00:00 24 16 Noroeste 37 Norte 0 1016.1 -- 36
2020-10-05 16:00:00 24 21 Noroeste 33 Noroeste 0 1016.2 -- 36
2020-10-05 15:00:00 23 18 Norte 32 Norte 0 1016.5 -0.7 39
2020-10-05 14:00:00 21.9 17 Norte 32 Norte 0 1017 0 42
2020-10-05 13:00:00 20.9 19 Norte 32 Norte 0 1017.2 0.9 45
2020-10-05 12:00:00 19.1 21 Norte 30 Norte 0 1017.2 -- 52
2020-10-05 11:00:00 16.1 14 Norte 21 Norte 0 1017 -- 62
2020-10-05 10:00:00 13.5 12 Noroeste 22 Noroeste 0 1016.3 -- 75
2020-10-05 09:00:00 10.4 8 Norte 15 Norte 0 1016 -- 85
2020-10-05 08:00:00 9.7 12 Norte 17 Norte 0 1015.1 -- 86
2020-10-05 07:00:00 10.1 7 Norte 13 Norte 0 1014.5 -- 83
2020-10-05 06:00:00 10.7 11 Norte 15 Noroeste 0 1014.2 -- 83
2020-10-05 05:00:00 11.7 8 Norte 15 Norte 0 1014 -- 79
2020-10-05 04:00:00 12.1 3 Noroeste 11 Norte 0 1013.6 -- 79
2020-10-05 03:00:00 13.4 3 Norte 8 Norte 0 1013.7 -- 85
2020-10-05 02:00:00 12.8 5 Norte 8 Norte 0 1013.5 -- 89
2020-10-05 01:00:00 15.3 0 Calma 13 Oeste 0 1012.9 -- 86
2020-10-05 00:00:00 17.5 10 Oeste 17 Oeste 0 1012.9 -- 81
2020-10-04 23:00:00 18.2 11 Oeste 22 Oeste 0 1012.7 -- 81
2020-10-04 22:00:00 18.8 14 Oeste 24 Oeste 0 1012.2 -- 79
2020-10-04 21:00:00 19.4 17 Oeste 26 Oeste 0 1011.8 -- 76
2020-10-04 20:00:00 19.6 18 Oeste 33 Oeste 0 1011.4 -- 71
2020-10-04 19:00:00 21.2 23 Oeste 35 Oeste 0 1011.2 -- 61
2020-10-04 18:00:00 22.4 23 Oeste 35 Oeste 0 1011.1 -- 55
2020-10-04 17:00:00 22.5 21 Oeste 41 Oeste 0 1011 -- 51
2020-10-04 16:00:00 22.5 22 Oeste 33 Oeste 0 1011.1 -- 47
2020-10-04 15:00:00 23.1 18 Oeste 30 Oeste 0 1011.2 -- 42
2020-10-04 14:00:00 22.9 18 Oeste 30 Oeste 0 1011.6 -- 39
2020-10-04 13:00:00 21.7 11 Oeste 22 Oeste 0 1012.1 -- 42
2020-10-04 12:00:00 20.1 5 Sudoeste 11 Sudoeste 0 1012.2 -- 47
2020-10-04 11:00:00 16.6 3 Noroeste 9 Norte 0 1012.3 -- 66
2020-10-04 10:00:00 12.6 0 Calma 5 Este 0 1011.8 -- 78
2020-10-04 09:00:00 7.5 2 Sudeste 8 Sudeste 0 1011.3 -- 89
2020-10-04 08:00:00 7.2 7 Este 9 Sudeste 0 1011.4 -- 86
2020-10-04 07:00:00 7.9 3 Norte 8 Norte 0 1010.9 -- 90
2020-10-04 06:00:00 8 4 Nordeste 8 Nordeste 0 1010.6 -- 88
2020-10-04 05:00:00 9.2 0 Calma 4 Norte 0 1010.8 -- 88
2020-10-04 04:00:00 9.7 6 Noroeste 11 Norte 0 1011 -- 88
2020-10-04 03:00:00 10.3 5 Este 9 Este 0 1011.3 -- 85
2020-10-04 02:00:00 11.4 3 Nordeste 13 Este 0 1011.2 -- 83
2020-10-04 01:00:00 10.7 6 Este 9 Nordeste 0 1011.2 -- 78
2020-10-04 00:00:00 12.9 6 Este 9 Nordeste 0 1011.3 -- 77
2020-10-03 23:00:00 14.4 4 Noroeste 13 Sudoeste 0 1011.3 -- 71
2020-10-03 22:00:00 15.7 8 Sur 17 Oeste 0 1011.1 -- 68
2020-10-03 21:00:00 17.6 12 Oeste 28 Oeste 0 1010.5 -- 60
2020-10-03 20:00:00 19.1 18 Oeste 32 Oeste 0 1009.9 -- 52
2020-10-03 19:00:00 21.3 22 Oeste 32 Oeste 0 1009.2 -- 39
2020-10-03 18:00:00 22.5 13 Oeste 28 Noroeste 0 1009.4 -- 35
2020-10-03 17:00:00 22.9 15 Oeste 30 Noroeste 0 1009.6 -- 36
2020-10-03 16:00:00 22.4 16 Norte 28 Noroeste 0 1009.6 -- 33
2020-10-03 15:00:00 21.9 15 Noroeste 28 Noroeste 0 1010.2 -- 32
2020-10-03 14:00:00 21.1 13 Norte 33 Norte 0 1010.8 -- 33
2020-10-03 13:00:00 19.7 12 Norte 28 Noroeste 0 1011.3 -- 42
2020-10-03 12:00:00 17.9 14 Norte 28 Noroeste 0 1011.4 -- 53
2020-10-03 11:00:00 15.9 17 Norte 28 Noroeste 0 1011.1 -- 65
2020-10-03 10:00:00 13.5 15 Noroeste 21 Oeste 0 1010.5 -- 73
2020-10-03 09:00:00 9.4 8 Noroeste 11 Noroeste 0 1009.8 -- 86
2020-10-03 08:00:00 9 5 Norte 17 Oeste 0 1009.2 -- 82
2020-10-03 07:00:00 11.5 10 Oeste 18 Oeste 0 1008.7 -- 74
2020-10-03 06:00:00 11.8 11 Oeste 21 Oeste 0 1008.5 -- 71
2020-10-03 05:00:00 12 13 Noroeste 18 Oeste 0 1008.2 -- 70
2020-10-03 04:00:00 11.8 15 Noroeste 22 Noroeste 0 1008.1 -- 69
2020-10-03 03:00:00 12.5 15 Noroeste 28 Noroeste 0 1007.9 -- 66
2020-10-03 02:00:00 13.8 20 Noroeste 30 Noroeste 0 1007.7 -- 61
2020-10-03 01:00:00 14.5 22 Noroeste 32 Noroeste 0 1007.5 -- 60
2020-10-03 00:00:00 15.1 21 Noroeste 35 Noroeste 0 1007.1 -- 62
2020-10-02 23:00:00 15.7 11 Noroeste 22 Noroeste 0 1006.6 -- 66
2020-10-02 22:00:00 18 13 Noroeste 30 Noroeste 0 1005.8 -- 63
2020-10-02 21:00:00 19 19 Oeste 37 Oeste 0 1004.9 -- 66
2020-10-02 20:00:00 20.4 22 Oeste 45 Oeste 0 1004 -- 69
2020-10-02 19:00:00 20.7 32 Oeste 50 Oeste 0 1003.3 -- 73
2020-10-02 18:00:00 19.9 26 Oeste 61 Oeste 0.9 1002.8 -- 89
2020-10-02 17:00:00 22.6 42 Oeste 78 Oeste 0 1002.5 -- 73
2020-10-02 16:00:00 23.7 44 Oeste 71 Sudoeste 0 1002.6 -- 69
2020-10-02 15:00:00 21.4 45 Sudoeste 63 Sudoeste 0 1003.5 -- 84
2020-10-02 14:00:00 22.3 39 Sudoeste 61 Sudoeste 0 1004.5 -- 70
2020-10-02 13:00:00 22.4 39 Sudoeste 55 Sudoeste 0 1005.2 -- 67
2020-10-02 12:00:00 21.5 30 Sudoeste 45 Sudoeste 0 1005.8 -- 75
2020-10-02 11:00:00 20 24 Sudoeste 39 Sudoeste 0 1006.7 -- 75
2020-10-02 10:00:00 19.1 21 Sudoeste 30 Sudoeste 0 1007 -- 75
2020-10-02 09:00:00 17.1 12 Sudoeste 22 Sudoeste 0 1007.3 -- 80
2020-10-02 08:00:00 15.6 10 Sur 15 Sudoeste 0 1007.7 -- 85
2020-10-02 07:00:00 16 9 Sudoeste 18 Oeste 0 1007.7 -- 82
2020-10-02 06:00:00 16.7 12 Oeste 21 Oeste 0 1008.1 -- 78
2020-10-02 05:00:00 17 15 Oeste 30 Oeste 0 1008.8 -- 78
2020-10-02 04:00:00 17.3 11 Oeste 21 Oeste 0 1009.2 -- 78
2020-10-02 03:00:00 18 13 Oeste 22 Oeste 0 1008.8 -- 76
2020-10-02 02:00:00 18.5 12 Oeste 22 Oeste 0 1009.5 -- 73
2020-10-02 01:00:00 19.1 11 Oeste 18 Noroeste 0 1010 -- 69
2020-10-02 00:00:00 20 14 Oeste 21 Oeste 0 1010.4 -- 75
2020-10-01 23:00:00 20.4 8 Oeste 24 Sudoeste 0 1010.5 -- 79
2020-10-01 22:00:00 20.8 14 Sudoeste 28 Oeste 0 1010.5 -- 80
2020-10-01 21:00:00 21.1 17 Oeste 33 Oeste 0 1010 -- 77
2020-10-01 20:00:00 22.2 22 Oeste 37 Oeste 0 1010.1 -- 69
2020-10-01 19:00:00 23.7 29 Sudoeste 39 Sudoeste 0 1010.2 -- 62
2020-10-01 18:00:00 26.2 23 Sudoeste 33 Sudoeste 0 1010.2 -- 51
2020-10-01 17:00:00 27.6 17 Oeste 30 Oeste 0 1010.3 -- 41
2020-10-01 16:00:00 27.1 15 Oeste 33 Noroeste 0 1010.7 -- 41
2020-10-01 15:00:00 26 13 Sudoeste 28 Sudoeste 0 1011.3 -- 43
2020-10-01 14:00:00 24.5 16 Oeste 28 Sudoeste 0 1012.2 -- 46
2020-10-01 13:00:00 23.4 15 Sudoeste 24 Sudoeste 0 1012.4 -- 50
2020-10-01 12:00:00 21.3 13 Oeste 21 Sudoeste 0 1012.5 -- 58
2020-10-01 11:00:00 18.7 9 Sudoeste 18 Oeste 0 1012.6 -- 68
2020-10-01 10:00:00 16.7 12 Noroeste 17 Noroeste 0 1012.5 -- 80
2020-10-01 09:00:00 14.6 0 Calma 9 Sudeste 0 1012 -- 90
2020-10-01 08:00:00 15 3 Sudoeste 15 Oeste 0 1011.8 -- 88
2020-10-01 07:00:00 17.4 8 Oeste 11 Oeste 0 1011.9 -- 92
2020-10-01 06:00:00 17.4 5 Sur 9 Sur 0 1011.2 -- 96
2020-10-01 05:00:00 17.7 4 Sur 8 Sur 0 1011.5 -- 92
2020-10-01 04:00:00 17.6 0 Calma 5 Sur 0 1011.9 -- 91
2020-10-01 03:00:00 15.9 0 Calma 5 Este 0 1012.2 -- 94
2020-10-01 02:00:00 15 3 Nordeste 8 Norte 0 1012.4 -- 89
2020-10-01 01:00:00 16.7 2 Este 8 Este 0 1012.8 -- 86
2020-10-01 00:00:00 17.9 6 Sudeste 8 Sudeste 0 1012.9 -- 87